createdAt,value
2022-10-11T00:01:35.465Z,13.50
2022-10-11T00:04:08.487Z,16.90
2022-10-11T00:06:43.630Z,14.60
2022-10-11T00:09:17.136Z,19.80
2022-10-11T00:11:50.037Z,14.20
2022-10-11T00:14:22.840Z,18.10
2022-10-11T00:16:55.839Z,16.30
2022-10-11T00:19:28.839Z,14.70
2022-10-11T00:22:01.833Z,14.30
2022-10-11T00:24:34.662Z,17.70
2022-10-11T00:27:07.471Z,16.10
2022-10-11T00:29:41.475Z,12.80
2022-10-11T00:32:14.295Z,15.70
2022-10-11T00:34:47.450Z,16.70
2022-10-11T00:37:20.599Z,18.60
2022-10-11T00:39:54.359Z,15.70
2022-10-11T00:42:27.649Z,21.60
2022-10-11T00:45:48.438Z,13.10
2022-10-11T00:48:27.983Z,20.20
2022-10-11T00:51:04.355Z,13.90
2022-10-11T00:53:37.462Z,14.10
2022-10-11T00:56:18.442Z,12.60
2022-10-11T00:58:51.722Z,15.50
2022-10-11T01:01:24.747Z,18.50
2022-10-11T01:03:58.927Z,14.00
2022-10-11T01:06:32.030Z,18.60
2022-10-11T01:09:05.051Z,17.40
2022-10-11T01:11:39.240Z,10.60
2022-10-11T01:15:05.563Z,20.10
2022-10-11T01:17:47.805Z,14.80
2022-10-11T01:20:46.048Z,14.20
2022-10-11T01:24:08.591Z,20.10
2022-10-11T01:27:28.545Z,16.60
2022-10-11T01:30:25.341Z,15.80
2022-10-11T01:33:10.404Z,16.40
2022-10-11T01:35:51.455Z,17.00
2022-10-11T01:38:29.542Z,20.50
2022-10-11T01:41:09.480Z,19.10
2022-10-11T01:43:43.981Z,11.90
2022-10-11T01:46:18.168Z,13.20
2022-10-11T01:48:56.117Z,15.30
2022-10-11T01:51:33.226Z,10.70
2022-10-11T01:54:49.846Z,12.80
2022-10-11T01:57:49.155Z,13.40
2022-10-11T02:00:24.700Z,14.20
2022-10-11T02:03:25.676Z,13.60
2022-10-11T02:06:09.465Z,14.00
2022-10-11T02:08:51.130Z,20.10
2022-10-11T02:11:30.119Z,18.90
2022-10-11T02:14:09.525Z,20.30
2022-10-11T02:16:47.223Z,18.70
2022-10-11T02:19:24.888Z,14.90
2022-10-11T02:22:02.681Z,17.00
2022-10-11T02:24:41.587Z,18.80
2022-10-11T02:27:15.974Z,22.10
2022-10-11T02:29:51.213Z,17.90
2022-10-11T02:32:27.054Z,19.30
2022-10-11T02:35:02.661Z,17.50
2022-10-11T02:37:43.029Z,18.30
2022-10-11T02:40:22.474Z,22.30
2022-10-11T02:43:01.459Z,19.90
2022-10-11T02:45:40.072Z,21.10
2022-10-11T02:48:14.156Z,19.50
2022-10-11T02:50:47.286Z,26.00
2022-10-11T02:53:20.083Z,25.50
2022-10-11T02:55:55.266Z,16.10
2022-10-11T02:58:28.646Z,16.10
2022-10-11T03:01:01.414Z,18.00
2022-10-11T03:03:34.418Z,15.30
2022-10-11T03:06:08.669Z,16.10
2022-10-11T03:08:41.931Z,17.50
2022-10-11T03:11:14.823Z,18.50
2022-10-11T03:13:47.789Z,17.60
2022-10-11T03:16:20.568Z,19.80
2022-10-11T03:18:53.468Z,19.10
2022-10-11T03:21:26.602Z,21.20
2022-10-11T03:23:59.484Z,15.70
2022-10-11T03:26:32.373Z,18.90
2022-10-11T03:29:05.211Z,15.10
2022-10-11T03:31:38.354Z,17.80
2022-10-11T03:34:11.731Z,17.60
2022-10-11T03:36:44.971Z,21.10
2022-10-11T03:39:17.871Z,14.10
2022-10-11T03:41:50.803Z,19.20
2022-10-11T03:44:23.598Z,16.00
2022-10-11T03:46:56.411Z,17.90
2022-10-11T03:49:29.518Z,16.40
2022-10-11T03:52:02.647Z,16.10
2022-10-11T03:54:35.497Z,22.70
2022-10-11T03:57:08.513Z,14.90
2022-10-11T03:59:41.513Z,18.50
2022-10-11T04:02:14.484Z,16.10
2022-10-11T04:04:48.328Z,14.40
2022-10-11T04:07:21.235Z,15.60
2022-10-11T04:09:54.287Z,18.80
2022-10-11T04:12:27.305Z,19.00
2022-10-11T04:15:00.117Z,15.30
2022-10-11T04:17:33.089Z,18.30
2022-10-11T04:20:06.855Z,15.00
2022-10-11T04:22:40.687Z,17.30
2022-10-11T04:25:14.310Z,16.70
2022-10-11T04:27:48.741Z,15.70
2022-10-11T04:30:22.088Z,15.60
2022-10-11T04:32:54.840Z,16.00
2022-10-11T04:35:27.637Z,17.10
2022-10-11T04:38:00.451Z,19.00
2022-10-11T04:40:33.623Z,17.30
2022-10-11T04:43:06.378Z,15.30
2022-10-11T04:45:39.190Z,18.50
2022-10-11T04:48:12.548Z,21.40
2022-10-11T04:50:45.937Z,17.00
2022-10-11T04:53:22.338Z,17.00
2022-10-11T04:56:04.141Z,14.50
2022-10-11T04:58:38.779Z,15.40
2022-10-11T05:01:12.404Z,13.10
2022-10-11T05:03:45.287Z,16.60
2022-10-11T05:06:18.121Z,13.50
2022-10-11T05:08:51.164Z,19.80
2022-10-11T05:11:24.066Z,17.20
2022-10-11T05:13:57.088Z,20.60
2022-10-11T05:16:30.065Z,19.10
2022-10-11T05:19:02.822Z,17.50
2022-10-11T05:21:35.588Z,19.40
2022-10-11T05:24:09.728Z,16.50
2022-10-11T05:26:42.493Z,17.60
2022-10-11T05:29:15.295Z,12.60
2022-10-11T05:31:48.100Z,17.10
2022-10-11T05:34:21.310Z,12.60
2022-10-11T05:36:54.455Z,22.00
2022-10-11T05:39:27.553Z,18.50
2022-10-11T05:42:00.533Z,15.40
2022-10-11T05:44:33.324Z,16.60
2022-10-11T05:47:06.227Z,15.90
2022-10-11T05:49:39.504Z,16.00
2022-10-11T05:52:13.362Z,15.10
2022-10-11T05:54:46.323Z,13.40
2022-10-11T05:57:19.229Z,27.30
2022-10-11T05:59:52.363Z,14.50
2022-10-11T06:02:25.401Z,15.00
2022-10-11T06:04:58.242Z,13.30
2022-10-11T06:07:31.568Z,15.80
2022-10-11T06:10:04.520Z,16.50
2022-10-11T06:12:37.742Z,15.60
2022-10-11T06:15:12.644Z,11.00
2022-10-11T06:17:45.485Z,14.00
2022-10-11T06:20:18.749Z,16.90
2022-10-11T06:22:51.537Z,23.20
2022-10-11T06:25:24.483Z,11.30
2022-10-11T06:27:57.684Z,9.80
2022-10-11T06:30:30.542Z,11.60
2022-10-11T06:33:04.947Z,12.30
2022-10-11T06:35:38.148Z,14.00
2022-10-11T06:38:11.006Z,14.60
2022-10-11T06:40:43.902Z,14.60
2022-10-11T06:43:16.773Z,13.40
2022-10-11T06:45:49.851Z,15.40
2022-10-11T06:48:22.725Z,10.40
2022-10-11T06:50:59.920Z,15.90
2022-10-11T06:53:33.281Z,8.10
2022-10-11T06:56:12.111Z,11.10
2022-10-11T06:58:45.122Z,11.60
2022-10-11T07:01:21.455Z,12.80
2022-10-11T07:03:56.372Z,13.50
2022-10-11T07:06:31.515Z,10.80
2022-10-11T07:09:05.715Z,14.00
2022-10-11T07:11:38.889Z,12.20
2022-10-11T07:14:12.504Z,13.90
2022-10-11T07:16:45.372Z,9.50
2022-10-11T07:19:18.261Z,13.50
2022-10-11T07:21:51.297Z,17.40
2022-10-11T07:24:24.253Z,11.20
2022-10-11T07:26:57.131Z,11.10
2022-10-11T07:29:29.962Z,9.00
2022-10-11T07:32:02.934Z,7.80
2022-10-11T07:34:36.035Z,12.20
2022-10-11T07:37:08.835Z,6.80
2022-10-11T07:39:42.162Z,6.10
2022-10-11T07:42:14.884Z,9.70
2022-10-11T07:44:47.680Z,13.80
2022-10-11T07:47:20.467Z,8.70
2022-10-11T07:49:53.261Z,8.60
2022-10-11T07:52:26.095Z,10.80
2022-10-11T07:54:59.047Z,15.90
2022-10-11T07:57:31.825Z,8.50
2022-10-11T08:00:05.899Z,8.80
2022-10-11T08:02:44.721Z,8.70
2022-10-11T08:05:18.245Z,6.40
2022-10-11T08:07:51.311Z,18.80
2022-10-11T08:10:24.565Z,9.90
2022-10-11T08:13:01.915Z,11.10
2022-10-11T08:15:37.587Z,10.00
2022-10-11T08:18:13.123Z,11.70
2022-10-11T08:20:46.349Z,10.00
2022-10-11T08:23:20.772Z,12.20
2022-10-11T08:25:59.391Z,20.30
2022-10-11T08:28:32.542Z,17.80
2022-10-11T08:31:06.089Z,10.90
2022-10-11T08:33:39.724Z,11.90
2022-10-11T08:36:13.614Z,27.10
2022-10-11T08:38:46.555Z,9.30
2022-10-11T08:41:39.362Z,16.50
2022-10-11T08:44:41.383Z,6.90
2022-10-11T08:47:27.827Z,7.50
2022-10-11T08:50:01.487Z,13.60
2022-10-11T08:52:45.195Z,9.10
2022-10-11T08:55:25.668Z,8.00
2022-10-11T08:58:00.127Z,8.10
2022-10-11T09:00:35.042Z,6.40
2022-10-11T09:03:22.381Z,12.40
2022-10-11T09:06:13.832Z,9.70
2022-10-11T09:09:05.487Z,10.70
2022-10-11T09:11:50.794Z,9.10
2022-10-11T09:14:51.281Z,8.50
2022-10-11T09:17:37.848Z,11.50
2022-10-11T09:20:48.614Z,5.70
2022-10-11T09:23:40.080Z,9.10
2022-10-11T09:26:21.233Z,6.00
2022-10-11T09:29:06.896Z,4.00
2022-10-11T09:31:39.905Z,12.30
2022-10-11T09:34:16.887Z,9.70
2022-10-11T09:36:56.530Z,10.90
2022-10-11T09:39:34.555Z,6.90
2022-10-11T09:42:10.209Z,6.20
2022-10-11T09:44:48.991Z,10.30
2022-10-11T09:47:26.335Z,6.10
2022-10-11T09:50:03.491Z,6.90
2022-10-11T09:52:48.876Z,5.00
2022-10-11T09:55:40.755Z,7.10
2022-10-11T09:58:33.949Z,7.00
2022-10-11T10:01:09.907Z,6.50
2022-10-11T10:03:45.585Z,7.30
2022-10-11T10:06:23.916Z,13.30
2022-10-11T10:08:58.477Z,8.10
2022-10-11T10:11:39.124Z,7.20
2022-10-11T10:14:23.512Z,9.60
2022-10-11T10:17:06.687Z,4.30
2022-10-11T10:19:50.769Z,9.10
2022-10-11T10:22:27.175Z,7.90
2022-10-11T10:25:02.860Z,8.90
2022-10-11T10:27:35.706Z,5.70
2022-10-11T10:30:20.818Z,4.80
2022-10-11T10:33:00.387Z,8.30
2022-10-11T10:35:38.852Z,5.40
2022-10-11T10:38:20.766Z,6.80
2022-10-11T10:40:59.488Z,6.80
2022-10-11T10:43:37.287Z,5.90
2022-10-11T10:46:50.325Z,4.70
2022-10-11T10:49:53.152Z,6.30
2022-10-11T10:52:56.248Z,5.80
2022-10-11T10:55:39.539Z,8.50
2022-10-11T10:58:34.076Z,7.30
2022-10-11T11:01:16.800Z,10.60
2022-10-11T11:03:59.009Z,4.30
2022-10-11T11:06:43.093Z,6.40
2022-10-11T11:09:31.538Z,6.50
2022-10-11T11:12:21.180Z,4.90
2022-10-11T11:15:04.342Z,6.90
2022-10-11T11:17:52.322Z,9.30
2022-10-11T11:20:40.167Z,6.40
2022-10-11T11:23:28.303Z,8.20
2022-10-11T11:26:12.427Z,7.00
2022-10-11T11:29:07.639Z,5.50
2022-10-11T11:32:09.800Z,4.50
2022-10-11T11:34:46.557Z,6.60
2022-10-11T11:37:30.218Z,5.40
2022-10-11T11:40:15.112Z,6.60
2022-10-11T11:42:50.393Z,5.40
2022-10-11T11:45:27.633Z,4.10
2022-10-11T11:48:05.255Z,6.80
2022-10-11T11:50:44.023Z,4.00
2022-10-11T11:53:23.328Z,8.40
2022-10-11T11:56:02.435Z,8.10
2022-10-11T11:58:45.130Z,4.40
2022-10-11T12:01:31.147Z,7.70
2022-10-11T12:04:13.571Z,4.70
2022-10-11T12:07:11.196Z,5.10
2022-10-11T12:09:42.571Z,3.90
2022-10-11T12:12:37.219Z,5.70
2022-10-11T12:15:25.152Z,4.30
2022-10-11T12:18:15.337Z,5.80
2022-10-11T12:20:48.279Z,3.90
2022-10-11T12:23:48.158Z,6.10
2022-10-11T12:26:45.948Z,4.60
2022-10-11T12:29:48.013Z,5.50
2022-10-11T12:33:04.170Z,5.00
2022-10-11T12:36:04.181Z,7.50
2022-10-11T12:38:42.079Z,4.60
2022-10-11T12:41:53.813Z,4.90
2022-10-11T12:44:29.471Z,7.00
2022-10-11T12:47:38.180Z,6.10
2022-10-11T12:53:05.888Z,4.70
2022-10-11T12:55:54.029Z,6.50
2022-10-11T12:58:38.468Z,5.10
2022-10-11T13:01:27.645Z,5.40
2022-10-11T13:04:09.204Z,4.40
2022-10-11T13:06:50.377Z,4.70
2022-10-11T13:09:31.799Z,11.00
2022-10-11T13:12:09.969Z,6.50
2022-10-11T13:14:47.428Z,9.60
2022-10-11T13:17:26.082Z,6.10
2022-10-11T13:20:17.106Z,6.50
2022-10-11T13:22:53.686Z,3.90
2022-10-11T13:25:28.957Z,7.90
2022-10-11T13:28:02.781Z,9.60
2022-10-11T13:30:38.646Z,6.80
2022-10-11T13:33:20.166Z,5.90
2022-10-11T13:35:53.895Z,6.20
2022-10-11T13:38:30.802Z,6.20
2022-10-11T13:41:08.521Z,6.50
2022-10-11T13:43:41.895Z,7.60
2022-10-11T13:46:21.891Z,6.50
2022-10-11T13:49:37.420Z,6.20
2022-10-11T13:52:24.700Z,4.20
2022-10-11T13:55:26.111Z,8.30
2022-10-11T13:58:00.737Z,9.80
2022-10-11T14:00:38.525Z,7.20
2022-10-11T14:03:21.467Z,6.70
2022-10-11T14:06:01.415Z,10.70
2022-10-11T14:08:40.043Z,8.90
2022-10-11T14:11:14.570Z,8.00
2022-10-11T14:13:50.072Z,7.90
2022-10-11T14:16:34.463Z,7.70
2022-10-11T14:19:19.469Z,12.00
2022-10-11T14:21:56.608Z,7.80
2022-10-11T14:24:29.562Z,7.30
2022-10-11T14:27:05.864Z,5.60
2022-10-11T14:30:00.285Z,7.80
2022-10-11T14:32:39.962Z,9.40
2022-10-11T14:35:18.958Z,8.50
2022-10-11T14:37:52.249Z,9.50
2022-10-11T14:40:28.772Z,9.50
2022-10-11T14:43:01.655Z,7.70
2022-10-11T14:45:35.252Z,6.70
2022-10-11T14:48:08.732Z,6.00
2022-10-11T14:50:47.937Z,9.00
2022-10-11T14:53:20.831Z,14.20
2022-10-11T14:55:54.099Z,9.80
2022-10-11T14:58:27.040Z,11.40
2022-10-11T15:00:59.856Z,12.90
2022-10-11T15:03:32.882Z,7.50
2022-10-11T15:06:06.570Z,13.70
2022-10-11T15:08:40.086Z,10.00
2022-10-11T15:11:14.548Z,9.70
2022-10-11T15:13:47.546Z,13.70
2022-10-11T15:16:23.185Z,12.50
2022-10-11T15:18:56.306Z,18.40
2022-10-11T15:21:31.279Z,24.40
2022-10-11T15:24:04.223Z,45.60
2022-10-11T15:26:37.354Z,32.50
2022-10-11T15:29:13.400Z,31.40
2022-10-11T15:31:47.310Z,23.40
2022-10-11T15:34:20.389Z,37.40
2022-10-11T15:36:53.304Z,28.10
2022-10-11T15:39:32.745Z,20.70
2022-10-11T15:42:05.844Z,27.70
2022-10-11T15:44:38.816Z,21.90
2022-10-11T15:47:12.242Z,29.30
2022-10-11T15:49:45.365Z,25.40
2022-10-11T15:52:18.354Z,20.60
2022-10-11T15:54:51.164Z,24.30
2022-10-11T15:57:24.124Z,15.50
2022-10-11T15:59:57.050Z,13.20
2022-10-11T16:02:30.052Z,13.70
2022-10-11T16:05:03.497Z,15.70
2022-10-11T16:07:36.697Z,22.00
2022-10-11T16:10:11.022Z,11.50
2022-10-11T16:12:44.127Z,13.30
2022-10-11T16:15:17.495Z,15.70
2022-10-11T16:17:50.338Z,16.40
2022-10-11T16:20:25.847Z,20.10
2022-10-11T16:22:58.922Z,13.60
2022-10-11T16:25:31.925Z,20.30
2022-10-11T16:28:05.275Z,10.40
2022-10-11T16:30:41.176Z,13.70
2022-10-11T16:33:14.009Z,14.10
2022-10-11T16:35:46.893Z,21.00
2022-10-11T16:38:19.989Z,12.80
2022-10-11T16:40:52.985Z,14.10
2022-10-11T16:43:25.875Z,16.70
2022-10-11T16:46:02.807Z,13.80
2022-10-11T16:48:35.459Z,12.40
2022-10-11T16:51:12.311Z,14.50
2022-10-11T16:53:45.237Z,15.40
2022-10-11T16:56:20.702Z,14.00
2022-10-11T16:58:54.286Z,19.80
2022-10-11T17:01:27.132Z,8.90
2022-10-11T17:04:00.187Z,16.00
2022-10-11T17:06:33.170Z,21.80
2022-10-11T17:09:06.228Z,11.40
2022-10-11T17:11:39.085Z,10.40
2022-10-11T17:14:12.957Z,15.40
2022-10-11T17:16:46.472Z,15.40
2022-10-11T17:19:20.366Z,17.70
2022-10-11T17:21:53.213Z,15.10
2022-10-11T17:24:26.461Z,19.00
2022-10-11T17:26:59.344Z,19.70
2022-10-11T17:29:32.392Z,28.00
2022-10-11T17:32:06.025Z,19.00
2022-10-11T17:34:39.877Z,18.00
2022-10-11T17:37:12.811Z,18.40
2022-10-11T17:39:45.722Z,18.60
2022-10-11T17:42:18.592Z,21.30
2022-10-11T17:44:51.543Z,18.90
2022-10-11T17:47:24.468Z,19.40
2022-10-11T17:49:57.228Z,20.00
2022-10-11T17:52:30.301Z,21.10
2022-10-11T17:55:03.300Z,24.20
2022-10-11T17:57:36.236Z,33.90
2022-10-11T18:00:11.877Z,16.30
2022-10-11T18:02:44.764Z,26.70
2022-10-11T18:05:17.808Z,24.10
2022-10-11T18:07:53.143Z,14.30
2022-10-11T18:10:27.450Z,12.80
2022-10-11T18:13:05.780Z,24.40
2022-10-11T18:15:39.484Z,23.70
2022-10-11T18:18:12.924Z,27.10
2022-10-11T18:20:50.168Z,29.30
2022-10-11T18:23:23.246Z,33.20
2022-10-11T18:25:56.533Z,39.00
2022-10-11T18:28:29.478Z,32.10
2022-10-11T18:31:02.380Z,40.90
2022-10-11T18:33:36.309Z,30.10
2022-10-11T18:36:13.590Z,33.60
2022-10-11T18:38:49.314Z,35.10
2022-10-11T18:41:24.911Z,38.40
2022-10-11T18:44:00.508Z,26.00
2022-10-11T18:46:34.023Z,18.70
2022-10-11T18:49:07.180Z,14.50
2022-10-11T18:51:42.498Z,18.40
2022-10-11T18:54:20.246Z,27.70
2022-10-11T18:56:54.643Z,30.20
2022-10-11T18:59:27.631Z,28.70
2022-10-11T19:02:00.688Z,34.20
2022-10-11T19:04:34.489Z,34.00
2022-10-11T19:07:07.266Z,36.50
2022-10-11T19:09:40.381Z,39.40
2022-10-11T19:12:13.207Z,39.80
2022-10-11T19:14:46.283Z,40.00
2022-10-11T19:17:22.694Z,32.50
2022-10-11T19:19:55.645Z,39.00
2022-10-11T19:22:28.531Z,42.20
2022-10-11T19:25:01.483Z,41.80
2022-10-11T19:27:34.285Z,22.10
2022-10-11T19:30:08.498Z,22.80
2022-10-11T19:32:41.347Z,30.30
2022-10-11T19:35:19.719Z,28.10
2022-10-11T19:37:52.788Z,33.60
2022-10-11T19:40:27.277Z,33.40
2022-10-11T19:43:02.927Z,20.50
2022-10-11T19:45:37.835Z,27.40
2022-10-11T19:48:11.235Z,25.50
2022-10-11T19:50:44.178Z,28.30
2022-10-11T19:53:16.966Z,33.90
2022-10-11T19:55:50.210Z,27.00
2022-10-11T19:58:23.037Z,45.10
2022-10-11T20:01:04.247Z,28.80
2022-10-11T20:03:37.450Z,30.00
2022-10-11T20:06:12.490Z,24.20
2022-10-11T20:08:48.222Z,33.50
2022-10-11T20:11:26.705Z,30.70
2022-10-11T20:13:59.866Z,26.40
2022-10-11T20:16:33.191Z,32.10
2022-10-11T20:19:06.399Z,29.70
2022-10-11T20:21:39.130Z,30.60
2022-10-11T20:24:12.262Z,25.70
2022-10-11T20:26:45.149Z,31.90
2022-10-11T20:29:18.218Z,37.30
2022-10-11T20:31:51.112Z,39.30
2022-10-11T20:34:23.969Z,43.10
2022-10-11T20:36:56.724Z,54.60
2022-10-11T20:39:29.744Z,40.50
2022-10-11T20:42:02.878Z,35.10
2022-10-11T20:44:35.883Z,25.40
2022-10-11T20:47:09.869Z,46.00
2022-10-11T20:49:42.849Z,38.40
2022-10-11T20:52:15.851Z,45.70
2022-10-11T20:54:48.753Z,40.10
2022-10-11T20:57:21.651Z,38.30
2022-10-11T20:59:54.502Z,29.60
2022-10-11T21:02:27.397Z,21.30
2022-10-11T21:05:00.169Z,25.20
2022-10-11T21:07:33.176Z,24.50
2022-10-11T21:10:06.800Z,28.00
2022-10-11T21:12:39.708Z,30.20
2022-10-11T21:15:13.660Z,31.70
2022-10-11T21:17:46.535Z,30.20
2022-10-11T21:20:19.839Z,34.60
2022-10-11T21:22:52.772Z,37.90
2022-10-11T21:25:25.649Z,38.30
2022-10-11T21:27:58.686Z,31.20
2022-10-11T21:30:31.674Z,30.20
2022-10-11T21:33:04.694Z,32.90
2022-10-11T21:35:41.508Z,45.40
2022-10-11T21:38:14.874Z,36.30
2022-10-11T21:40:47.773Z,40.60
2022-10-11T21:43:20.701Z,43.00
2022-10-11T21:45:53.544Z,56.20
2022-10-11T21:48:26.445Z,57.10
2022-10-11T21:50:59.483Z,46.30
2022-10-11T21:53:32.410Z,51.40
2022-10-11T21:56:05.461Z,46.20
2022-10-11T21:58:38.400Z,53.40
2022-10-11T22:01:12.215Z,34.70
2022-10-11T22:03:45.526Z,36.60
2022-10-11T22:06:21.511Z,36.20
2022-10-11T22:08:55.120Z,31.70
2022-10-11T22:11:28.851Z,41.20
2022-10-11T22:14:02.182Z,37.50
2022-10-11T22:16:36.341Z,41.00
2022-10-11T22:19:09.477Z,46.60
2022-10-11T22:21:45.041Z,35.20
2022-10-11T22:24:19.309Z,40.50
2022-10-11T22:26:52.616Z,53.90
2022-10-11T22:29:27.690Z,36.50
2022-10-11T22:32:03.632Z,36.60
2022-10-11T22:34:37.368Z,46.30
2022-10-11T22:37:10.504Z,49.80
2022-10-11T22:39:43.722Z,50.50
2022-10-11T22:42:17.067Z,32.40
2022-10-11T22:44:50.976Z,42.20
2022-10-11T22:47:24.166Z,37.30
2022-10-11T22:49:57.396Z,45.80
2022-10-11T22:52:30.553Z,40.70
2022-10-11T22:55:03.783Z,45.10
2022-10-11T22:57:37.364Z,45.60
2022-10-11T23:00:13.901Z,30.70
2022-10-11T23:02:47.249Z,37.40
2022-10-11T23:06:02.119Z,38.50
2022-10-11T23:08:35.525Z,36.70
2022-10-11T23:11:10.273Z,36.70
2022-10-11T23:13:43.532Z,36.20
2022-10-11T23:16:17.144Z,50.10
2022-10-11T23:18:52.764Z,52.20
2022-10-11T23:21:26.079Z,43.30
2022-10-11T23:23:59.658Z,40.40
2022-10-11T23:26:32.830Z,41.10
2022-10-11T23:29:06.458Z,49.20
2022-10-11T23:31:39.608Z,55.10
2022-10-11T23:34:12.801Z,37.50
2022-10-11T23:36:46.237Z,46.70
2022-10-11T23:39:19.857Z,38.60
2022-10-11T23:41:53.038Z,37.80
2022-10-11T23:44:26.262Z,42.30
2022-10-11T23:46:59.527Z,36.50
2022-10-11T23:49:32.705Z,30.10
2022-10-11T23:52:05.976Z,30.40
2022-10-11T23:54:40.084Z,31.00
2022-10-11T23:57:13.072Z,38.90
2022-10-11T23:59:45.849Z,40.40
